AirNav   Air Wisconsin Up To $57,000 Bonus
 
 835 users online  

T00 Chambers County Airport
Anahuac, Texas, USA

GOING TO ANAHUAC?


FAA INFORMATION EFFECTIVE 05 DECEMBER 2019

Location

FAA Identifier: T00
Lat/Long: 29-46-11.3332N 094-39-48.5535W
29-46.188887N 094-39.809225W
29.7698148,-94.6634871
(estimated)
Elevation: 21.2 ft. / 6.5 m (surveyed)
Variation: 05E (1995)
From city: 1 mile E of ANAHUAC, TX
Time zone: UTC -6 (UTC -5 during Daylight Saving Time)
Zip code: 77514

Airport Operations

Airport use: Open to the public
Activation date: 10/1978
Control tower: no
ARTCC: HOUSTON CENTER
FSS: MONTGOMERY COUNTY FLIGHT SERVICE STATION
NOTAMs facility: CXO (NOTAM-D service available)
Attendance: MON-FRI 0800-1700
Wind indicator: lighted
Segmented circle: yes
Lights: DUSK-DAWN. MIRL RY 12/30 PRESET LOW INTST; TO INCR INTST ACTVT - CTAF.
Beacon: white-green (lighted land airport)
Operates sunset to sunrise.

Airport Communications

CTAF: 122.9
HOUSTON APPROACH: 134.45 [0600-0000]
HOUSTON DEPARTURE: 134.45 [0600-0000]
BLTWY RNAV DP: 134.45
BLUEBELL STAR: 124.225
BORRN RNAV DP: 134.45
CESAN STAR: 121.3
DREMR DP: 134.45
HOODO RNAV DP: 134.45
HUDZY STAR: 120.05
INDIE RNAV DP: 134.45
KARRR RNAV DP: 134.45
LURIC DP: 134.45
MMALT RNAV DP: 134.45
OHIIO STAR: 120.05
STRYA DP: 134.45
STYCK DP: 134.45
TCHDN STAR: 119.175
TKNIQ STAR: 119.625
WAPPL STAR: 120.05
WATFO DP: 134.45
WYLSN RNAV DP: 134.45

Nearby radio navigation aids

VOR radial/distance  VOR name  Freq  Var
MHFr011/14.1TRINITY VOR/DME113.6007E
DASr177/25.2DAISETTA VORTAC116.9005E
VUHr014/31.9SCHOLES VOR/DME113.0006E
HUBr073/32.7HOBBY VOR/DME117.1005E
SBIr272/33.0SABINE PASS VOR/DME115.4007E
BPTr246/35.3BEAUMONT VOR/DME114.5007E
IAHr103/37.2HUMBLE VORTAC116.6005E

 
NDB name  Hdg/Dist  Freq  Var  ID
GALVESTON002/26.620608EGLS --. .-.. ...
GOODHUE226/29.636807EGDE --. -.. .
HARDIN COUNTY208/39.952404EHRD .... .-. -..

Airport Services

Fuel available: 100LL JET-A
Parking: tiedowns
Bottled oxygen: NONE
Bulk oxygen: NONE

Runway Information

Runway 12/30

Dimensions: 3005 x 60 ft. / 916 x 18 m
Surface: asphalt, in fair condition
Weight bearing capacity: 
Single wheel: 13.0
Runway edge lights: medium intensity
Runway edge markings: MARKINGS FADED.
RUNWAY 12  RUNWAY 30
Latitude: 29-46.363987N29-46.053815N
Longitude: 094-39.966058W094-39.522763W
Elevation: 20.4 ft.20.4 ft.
Traffic pattern: leftright
Runway heading: 124 magnetic, 129 true304 magnetic, 309 true
Markings: nonprecision, in poor conditionnonprecision, in poor condition
Visual slope indicator: 2-light PAPI on left (4.00 degrees glide path)
Touchdown point: yes, no lightsyes, no lights
Obstructions: 30 ft. pole, 875 ft. from runway, 171 ft. left of centerline, 22:1 slope to clear15 ft. road, 530 ft. from runway, 280 ft. left of centerline, 22:1 slope to clear

Runway 17/35

Dimensions: 1900 x 300 ft. / 579 x 91 m
Surface: turf, in good condition
RUNWAY 17  RUNWAY 35
Latitude: 29-46.313965N29-46.000500N
Longitude: 094-39.911733W094-39.911733W
Elevation: 20.0 ft.20.0 ft.
Traffic pattern: leftright
Runway heading: 175 magnetic, 180 true355 magnetic, 000 true
Markings: none, in good conditionnone, in good condition
Touchdown point: yes, no lightsyes, no lights
Obstructions: 56 ft. trees, 852 ft. from runway, 119 ft. left of centerline, 15:1 slope to clear15 ft. road, 230 ft. from runway, 15:1 slope to clear

Airport Ownership and Management from official FAA records

Ownership: Publicly-owned
Owner: CHAMBERS COUNTY
PO BOX 938
ANAHUAC, TX 77514
Phone 409-267-2719
Manager: KELLY TRAHAN
PO BOX 938
ANAHUAC, TX 77514
Phone 409-267-2719

Airport Operational Statistics

Aircraft based on the field: 9
Single engine airplanes: 7
Multi engine airplanes: 1
Ultralights: 1
    
Aircraft operations: avg 46/week *
67% local general aviation
33% transient general aviation
* for 12-month period ending 28 March 2017

Additional Remarks

RWY 17/35 SOFT WHEN WET.
RWY 17/35 USE EXTREME CARE; PAPI RY 12 LOCATED NORTH LIMITS OF TURF RWY.
FOR CD CTC HOUSTON APCH AT 281-443-5844 TO CNL IFR CALL 281-443-5888.
TAXIWAY BRAVO HAS A POT HOLE AND BROKEN ASPHALT.

Instrument Procedures

NOTE: All procedures below are presented as PDF files. If you need a reader for these files, you should download the free Adobe Reader.

NOT FOR NAVIGATION. Please procure official charts for flight.
FAA instrument procedures published for use from 05 December 2019 at 0900Z to 02 January 2020 at 0900Z.

 
STARs - Standard Terminal Arrivals
BLUBELL THREE   download (296KB)
CESAN FOUR (RNAV)   2 pages: [1] [2] (361KB)
HUDZY FOUR   2 pages: [1] [2] (315KB)
OHIIO FOUR   download (294KB)
TCHDN TWO   2 pages: [1] [2] (357KB)
TKNIQ TWO (RNAV)   2 pages: [1] [2] (286KB)
WAPPL FOUR (RNAV)   2 pages: [1] [2] (380KB)
WAPPL FOUR (RNAV), CONT.2   download (265KB)
 
IAPs - Instrument Approach Procedures
RNAV (GPS) RWY 12   download (165KB)
 
Departure Procedures
BLTWY SIX (RNAV)   download (130KB)
BORRN FOUR (RNAV)   2 pages: [1] [2] (253KB)
HOODO SIX (RNAV)   download (180KB)
INDIE SEVEN (RNAV)   download (154KB)
KARRR SIX (RNAV) **NEW**   2 pages: [1] [2] (210KB)
LURIC SEVEN (RNAV)   download (175KB)
MMALT FIVE (RNAV)   download (190KB)
PALACIOS ONE   2 pages: [1] [2] (262KB)
STRYA SEVEN (RNAV)   download (163KB)
STYCK SEVEN (RNAV)   download (149KB)
WATFO FIVE (RNAV)   download (137KB)
WYLSN SEVEN (RNAV)   download (138KB)
NOTE: Special Take-Off Minimums/Departure Procedures apply   download (70KB)

Other nearby airports with instrument procedures:

54T - RWJ Airpark (10 nm W)
KHPY - Baytown Airport (15 nm W)
T78 - Liberty Municipal Airport (19 nm N)
T41 - La Porte Municipal Airport (22 nm W)
KEFD - Ellington Airport (28 nm W)
 
Loc | Ops | Rwys | IFR | FBO | Links
Com | Nav | Svcs | Stats | Notes
Area around T00 (Chambers County Airport)
 
Road maps at: MapQuest Bing Google
 
Aerial photo
WARNING: Photo may not be current or correct
Aerial photo of T00 (Chambers County Airport)
Photo taken 04-Mar-2007
on final for runway 30

Do you have a better or more recent aerial photo of Chambers County Airport that you would like to share? If so, please send us your photo.

 
Sectional chart

 
Airport distance calculator
Flying to Chambers County Airport? Find the distance to fly.

From to T00

Sunrise and sunset
Times for 08-Dec-2019
 Local
(UTC-6)
 Zulu
(UTC)
Morning civil twilight06:3712:37
Sunrise07:0313:03
Sunset17:1823:18
Evening civil twilight17:4523:45

Current date and time
Zulu (UTC)  09-Dec-2019 01:18:40
Local (UTC-6)  08-Dec-2019 19:18:40
 
METAR
KEFD 
28nm W 
090050Z 15006KT 10SM FEW030 BKN250 19/16 A2994
KBMT 
29nm NE 
090055Z AUTO 14007KT 10SM CLR 19/17 A2995 RMK AO2 T01870165 TSNO
KGLS 
32nm S 
090052Z AUTO 14007KT 10SM SCT030 19/18 A2996 RMK AO2 SLP144 T01940183
KHOU 
33nm W 
090053Z 16008KT 10SM SCT250 19/16 A2993 RMK AO2 SLP141 T01940156
KLVJ 
34nm SW 
090053Z AUTO 15004KT 9SM CLR 19/16 A2996 RMK AO2 SLP145 T01940156
KBPT 
35nm E 
090053Z 15009KT 10SM BKN030 19/16 A2995 RMK AO2 SLP141 T01890161
KXIH 
36nm S 
090055Z AUTO 17012KT 10SM OVC026 21/18 A2996 RMK A01
KIAH 
39nm W 
090053Z 17008KT 10SM BKN250 20/16 A2992 RMK AO2 SLP131 T02000156
K6R3 
39nm NW 
090055Z AUTO 17004KT 7SM CLR 17/15 A2994 RMK AO2 T01720150
KAXH 
45nm W 
090055Z AUTO 16003KT 10SM CLR 17/16 A2996 RMK AO2 T01740161
TAF
KEFD 
28nm W 
082000Z 0820/1002 17012KT 9999 SCT030 QNH2986INS BECMG 0904/0905 18006KT 8000 BR BKN020 510102 QNH2983INS BECMG 0909/0910 19006KT 4800 BR OVC010 510102 QNH2982INS BECMG 0916/0917 21012G18KT 9999 NSW BKN020 QNH2981INS BECMG 0922/0923 20006KT 8000 -SHRA BKN025 QNH2985INS TX23/0821Z TN17/0902Z
KGLS 
32nm S 
081748Z 0818/0918 13008KT P6SM SCT250 FM090300 17009KT P6SM FEW008 SCT250 FM090700 19010KT 6SM HZ SCT005 BKN040 FM090900 19010KT 5SM BR SCT005 BKN025 FM091500 20010KT 6SM HZ SCT005 OVC035
KHOU 
33nm W 
082100Z 0821/0918 17012KT P6SM SCT035 BKN250 FM090500 18006KT P6SM SCT025 BKN250 FM090700 19006KT P6SM SCT005 BKN025 FM091100 21005KT 5SM BR SCT008 OVC015 FM091630 23009KT P6SM OVC020
KBPT 
35nm E 
082155Z 0822/0918 17010KT P6SM SCT025 TEMPO 0822/0824 BKN025 FM090700 18005KT P6SM OVC015 TEMPO 0910/0914 2SM BR OVC008 FM091500 20007KT P6SM OVC025
NOTAMs
Click for the latest NOTAMs
NOTAMs are issued by the DoD/FAA and will open in a separate window not controlled by AirNav.

 

 
 

FBO, Fuel Providers, and Aircraft Ground Support

  
 Business Name 
 
 Contact 
 
 Services / Description 
 
Fuel Prices
 
Comments
  
Chambers County Anahuac Airport 409-267-2719
no information available

If you are affiliated with Chambers County Anahuac Airport and would like to show here your services, contact info, web link, logo, and more, click here
100LL Jet A
SS $4.00 $3.40 
 Updated 05-Dec-2019
 
   2 read write
SS=Self service
Update Fuel Prices
 

Would you like to see your business listed on this page?

 If your business provides an interesting product or service to pilots, flight crews, aircraft, or users of the Chambers County Airport, you should consider listing it here.  To start the listing process, click on the button below
 
Add a business
 

Other Pages about Chambers County Airport

www.co.chambers.tx.us/...
 
Update a link
 
Copyright © AirNav, LLC. All rights reserved. Privacy Policy  Contact